sensor_id;sensor_type;location;lat;lon;timestamp;P1;durP1;ratioP1;P2;durP2;ratioP2
22894;SDS011;11614;52.494;6.976;2024-02-21T00:01:31;22.00;;;7.97;;
22894;SDS011;11614;52.494;6.976;2024-02-21T00:03:57;23.23;;;8.53;;
22894;SDS011;11614;52.494;6.976;2024-02-21T00:06:23;22.33;;;8.03;;
22894;SDS011;11614;52.494;6.976;2024-02-21T00:08:51;22.93;;;8.90;;
22894;SDS011;11614;52.494;6.976;2024-02-21T00:11:17;20.43;;;8.00;;
22894;SDS011;11614;52.494;6.976;2024-02-21T00:13:43;24.90;;;9.00;;
22894;SDS011;11614;52.494;6.976;2024-02-21T00:16:08;25.33;;;11.80;;
22894;SDS011;11614;52.494;6.976;2024-02-21T00:18:36;19.70;;;8.57;;
22894;SDS011;11614;52.494;6.976;2024-02-21T00:21:02;25.97;;;10.77;;
22894;SDS011;11614;52.494;6.976;2024-02-21T00:23:28;28.37;;;11.60;;
22894;SDS011;11614;52.494;6.976;2024-02-21T00:25:54;26.77;;;10.70;;
22894;SDS011;11614;52.494;6.976;2024-02-21T00:28:20;23.83;;;10.07;;
22894;SDS011;11614;52.494;6.976;2024-02-21T00:30:46;26.60;;;12.20;;
22894;SDS011;11614;52.494;6.976;2024-02-21T00:33:13;21.67;;;10.93;;
22894;SDS011;11614;52.494;6.976;2024-02-21T00:35:40;19.47;;;8.63;;
22894;SDS011;11614;52.494;6.976;2024-02-21T00:38:06;31.57;;;12.23;;
22894;SDS011;11614;52.494;6.976;2024-02-21T00:40:32;20.23;;;7.03;;
22894;SDS011;11614;52.494;6.976;2024-02-21T00:42:57;24.23;;;7.40;;
22894;SDS011;11614;52.494;6.976;2024-02-21T00:45:23;26.07;;;10.77;;
22894;SDS011;11614;52.494;6.976;2024-02-21T00:47:49;28.83;;;12.20;;
22894;SDS011;11614;52.494;6.976;2024-02-21T00:50:15;15.97;;;5.27;;
22894;SDS011;11614;52.494;6.976;2024-02-21T00:52:41;22.90;;;11.03;;
22894;SDS011;11614;52.494;6.976;2024-02-21T00:55:08;25.30;;;10.40;;
22894;SDS011;11614;52.494;6.976;2024-02-21T00:57:34;26.67;;;9.93;;
22894;SDS011;11614;52.494;6.976;2024-02-21T01:00:01;22.80;;;10.97;;
22894;SDS011;11614;52.494;6.976;2024-02-21T01:02:27;29.63;;;13.07;;
22894;SDS011;11614;52.494;6.976;2024-02-21T01:04:52;26.07;;;10.23;;
22894;SDS011;11614;52.494;6.976;2024-02-21T01:07:19;26.50;;;12.07;;
22894;SDS011;11614;52.494;6.976;2024-02-21T01:09:45;24.03;;;11.37;;
22894;SDS011;11614;52.494;6.976;2024-02-21T01:12:11;24.07;;;8.57;;
22894;SDS011;11614;52.494;6.976;2024-02-21T01:14:37;21.97;;;10.90;;
22894;SDS011;11614;52.494;6.976;2024-02-21T01:17:03;18.97;;;8.97;;
22894;SDS011;11614;52.494;6.976;2024-02-21T01:19:31;27.40;;;12.37;;
22894;SDS011;11614;52.494;6.976;2024-02-21T01:21:57;23.67;;;9.23;;
22894;SDS011;11614;52.494;6.976;2024-02-21T01:24:23;26.20;;;11.90;;
22894;SDS011;11614;52.494;6.976;2024-02-21T01:26:49;25.37;;;13.53;;
22894;SDS011;11614;52.494;6.976;2024-02-21T01:29:15;21.80;;;9.90;;
22894;SDS011;11614;52.494;6.976;2024-02-21T01:31:41;23.17;;;9.30;;
22894;SDS011;11614;52.494;6.976;2024-02-21T01:34:07;25.07;;;7.03;;
22894;SDS011;11614;52.494;6.976;2024-02-21T01:36:33;22.03;;;9.37;;
22894;SDS011;11614;52.494;6.976;2024-02-21T01:38:59;25.83;;;11.50;;
22894;SDS011;11614;52.494;6.976;2024-02-21T01:41:25;19.03;;;7.30;;
22894;SDS011;11614;52.494;6.976;2024-02-21T01:43:51;18.03;;;8.13;;
22894;SDS011;11614;52.494;6.976;2024-02-21T01:46:17;18.10;;;7.80;;
22894;SDS011;11614;52.494;6.976;2024-02-21T01:48:43;19.60;;;8.70;;
22894;SDS011;11614;52.494;6.976;2024-02-21T01:51:11;24.33;;;9.40;;
22894;SDS011;11614;52.494;6.976;2024-02-21T01:53:38;23.00;;;9.73;;
22894;SDS011;11614;52.494;6.976;2024-02-21T01:56:08;24.97;;;9.93;;
22894;SDS011;11614;52.494;6.976;2024-02-21T01:58:35;17.13;;;9.17;;
22894;SDS011;11614;52.494;6.976;2024-02-21T02:01:02;12.27;;;5.00;;
22894;SDS011;11614;52.494;6.976;2024-02-21T02:03:28;15.70;;;7.63;;
22894;SDS011;11614;52.494;6.976;2024-02-21T02:05:55;20.37;;;10.60;;
22894;SDS011;11614;52.494;6.976;2024-02-21T02:08:21;17.43;;;9.70;;
22894;SDS011;11614;52.494;6.976;2024-02-21T02:10:50;19.93;;;9.23;;
22894;SDS011;11614;52.494;6.976;2024-02-21T02:13:16;17.97;;;6.87;;
22894;SDS011;11614;52.494;6.976;2024-02-21T02:18:08;13.77;;;6.60;;
22894;SDS011;11614;52.494;6.976;2024-02-21T02:20:35;19.13;;;7.77;;
22894;SDS011;11614;52.494;6.976;2024-02-21T02:23:11;21.60;;;10.40;;
22894;SDS011;11614;52.494;6.976;2024-02-21T02:25:38;12.13;;;6.03;;
22894;SDS011;11614;52.494;6.976;2024-02-21T02:28:05;18.37;;;7.17;;
22894;SDS011;11614;52.494;6.976;2024-02-21T02:30:32;18.53;;;9.17;;
22894;SDS011;11614;52.494;6.976;2024-02-21T02:32:59;17.00;;;9.60;;
22894;SDS011;11614;52.494;6.976;2024-02-21T02:35:25;17.73;;;10.13;;
22894;SDS011;11614;52.494;6.976;2024-02-21T02:37:51;19.47;;;7.43;;
22894;SDS011;11614;52.494;6.976;2024-02-21T02:40:20;23.87;;;7.63;;
22894;SDS011;11614;52.494;6.976;2024-02-21T02:42:46;17.57;;;8.23;;
22894;SDS011;11614;52.494;6.976;2024-02-21T02:45:13;12.03;;;5.83;;
22894;SDS011;11614;52.494;6.976;2024-02-21T02:47:40;17.37;;;7.60;;
22894;SDS011;11614;52.494;6.976;2024-02-21T02:50:06;22.87;;;9.27;;
22894;SDS011;11614;52.494;6.976;2024-02-21T02:52:32;14.50;;;7.17;;
22894;SDS011;11614;52.494;6.976;2024-02-21T02:54:58;15.53;;;7.07;;
22894;SDS011;11614;52.494;6.976;2024-02-21T02:57:26;10.87;;;4.57;;
22894;SDS011;11614;52.494;6.976;2024-02-21T02:59:52;21.37;;;9.70;;
22894;SDS011;11614;52.494;6.976;2024-02-21T03:02:18;20.67;;;10.17;;
22894;SDS011;11614;52.494;6.976;2024-02-21T03:04:44;20.03;;;8.80;;
22894;SDS011;11614;52.494;6.976;2024-02-21T03:07:10;18.73;;;8.80;;
22894;SDS011;11614;52.494;6.976;2024-02-21T03:09:37;17.53;;;8.53;;
22894;SDS011;11614;52.494;6.976;2024-02-21T03:12:04;22.63;;;8.47;;
22894;SDS011;11614;52.494;6.976;2024-02-21T03:14:31;16.40;;;7.57;;
22894;SDS011;11614;52.494;6.976;2024-02-21T03:16:57;15.27;;;7.50;;
22894;SDS011;11614;52.494;6.976;2024-02-21T03:19:24;21.03;;;8.83;;
22894;SDS011;11614;52.494;6.976;2024-02-21T03:21:50;20.53;;;10.33;;
22894;SDS011;11614;52.494;6.976;2024-02-21T03:24:16;19.97;;;9.90;;
22894;SDS011;11614;52.494;6.976;2024-02-21T03:26:42;15.97;;;6.67;;
22894;SDS011;11614;52.494;6.976;2024-02-21T03:29:09;17.67;;;8.83;;
22894;SDS011;11614;52.494;6.976;2024-02-21T03:31:35;20.40;;;7.53;;
22894;SDS011;11614;52.494;6.976;2024-02-21T03:34:01;23.47;;;10.43;;
22894;SDS011;11614;52.494;6.976;2024-02-21T03:36:27;22.30;;;7.90;;
22894;SDS011;11614;52.494;6.976;2024-02-21T03:38:54;14.23;;;7.33;;
22894;SDS011;11614;52.494;6.976;2024-02-21T03:41:20;19.57;;;8.47;;
22894;SDS011;11614;52.494;6.976;2024-02-21T03:43:46;17.70;;;8.63;;
22894;SDS011;11614;52.494;6.976;2024-02-21T03:46:12;18.00;;;9.20;;
22894;SDS011;11614;52.494;6.976;2024-02-21T03:48:38;13.50;;;5.87;;
22894;SDS011;11614;52.494;6.976;2024-02-21T03:51:04;15.67;;;7.23;;
22894;SDS011;11614;52.494;6.976;2024-02-21T03:53:30;22.47;;;10.87;;
22894;SDS011;11614;52.494;6.976;2024-02-21T03:55:56;18.73;;;8.97;;
22894;SDS011;11614;52.494;6.976;2024-02-21T03:58:27;17.23;;;7.23;;
22894;SDS011;11614;52.494;6.976;2024-02-21T04:00:53;18.90;;;8.80;;
22894;SDS011;11614;52.494;6.976;2024-02-21T04:03:19;24.67;;;7.93;;
22894;SDS011;11614;52.494;6.976;2024-02-21T04:05:45;21.63;;;9.37;;
22894;SDS011;11614;52.494;6.976;2024-02-21T04:08:11;18.53;;;8.23;;
22894;SDS011;11614;52.494;6.976;2024-02-21T04:10:37;17.73;;;9.93;;
22894;SDS011;11614;52.494;6.976;2024-02-21T04:13:04;14.07;;;4.60;;
22894;SDS011;11614;52.494;6.976;2024-02-21T04:15:31;22.87;;;11.30;;
22894;SDS011;11614;52.494;6.976;2024-02-21T04:17:57;22.20;;;11.03;;
22894;SDS011;11614;52.494;6.976;2024-02-21T04:20:23;18.43;;;8.20;;
22894;SDS011;11614;52.494;6.976;2024-02-21T04:22:49;17.50;;;7.93;;
22894;SDS011;11614;52.494;6.976;2024-02-21T04:25:15;26.30;;;11.77;;
22894;SDS011;11614;52.494;6.976;2024-02-21T04:27:41;21.73;;;11.03;;
22894;SDS011;11614;52.494;6.976;2024-02-21T04:30:07;17.10;;;7.97;;
22894;SDS011;11614;52.494;6.976;2024-02-21T04:32:34;19.07;;;9.97;;
22894;SDS011;11614;52.494;6.976;2024-02-21T04:35:01;22.60;;;10.73;;
22894;SDS011;11614;52.494;6.976;2024-02-21T04:37:27;25.63;;;11.03;;
22894;SDS011;11614;52.494;6.976;2024-02-21T04:39:53;21.73;;;10.70;;
22894;SDS011;11614;52.494;6.976;2024-02-21T04:42:19;22.93;;;8.70;;
22894;SDS011;11614;52.494;6.976;2024-02-21T04:44:45;18.33;;;8.30;;
22894;SDS011;11614;52.494;6.976;2024-02-21T04:47:11;20.20;;;10.57;;
22894;SDS011;11614;52.494;6.976;2024-02-21T04:49:38;25.07;;;10.70;;
22894;SDS011;11614;52.494;6.976;2024-02-21T04:52:04;18.00;;;10.73;;
22894;SDS011;11614;52.494;6.976;2024-02-21T04:54:30;14.07;;;6.03;;
22894;SDS011;11614;52.494;6.976;2024-02-21T04:56:56;19.47;;;10.20;;
22894;SDS011;11614;52.494;6.976;2024-02-21T04:59:22;16.93;;;7.50;;
22894;SDS011;11614;52.494;6.976;2024-02-21T05:01:48;19.53;;;8.40;;
22894;SDS011;11614;52.494;6.976;2024-02-21T05:04:15;16.27;;;6.43;;
22894;SDS011;11614;52.494;6.976;2024-02-21T05:06:41;18.23;;;6.67;;
22894;SDS011;11614;52.494;6.976;2024-02-21T05:09:07;21.70;;;9.77;;
22894;SDS011;11614;52.494;6.976;2024-02-21T05:11:33;16.93;;;7.37;;
22894;SDS011;11614;52.494;6.976;2024-02-21T05:13:59;12.93;;;6.73;;
22894;SDS011;11614;52.494;6.976;2024-02-21T05:16:25;16.00;;;7.37;;
22894;SDS011;11614;52.494;6.976;2024-02-21T05:18:51;20.67;;;11.03;;
22894;SDS011;11614;52.494;6.976;2024-02-21T05:21:17;15.23;;;7.13;;
22894;SDS011;11614;52.494;6.976;2024-02-21T05:23:44;18.20;;;7.17;;
22894;SDS011;11614;52.494;6.976;2024-02-21T05:26:10;22.53;;;8.83;;
22894;SDS011;11614;52.494;6.976;2024-02-21T05:28:36;18.73;;;8.80;;
22894;SDS011;11614;52.494;6.976;2024-02-21T05:31:02;20.60;;;9.10;;
22894;SDS011;11614;52.494;6.976;2024-02-21T05:33:28;13.03;;;5.43;;
22894;SDS011;11614;52.494;6.976;2024-02-21T05:35:54;16.30;;;7.50;;
22894;SDS011;11614;52.494;6.976;2024-02-21T05:38:20;16.60;;;7.07;;
22894;SDS011;11614;52.494;6.976;2024-02-21T05:40:46;17.37;;;6.13;;
22894;SDS011;11614;52.494;6.976;2024-02-21T05:43:13;19.93;;;8.83;;
22894;SDS011;11614;52.494;6.976;2024-02-21T05:45:39;21.47;;;8.30;;
22894;SDS011;11614;52.494;6.976;2024-02-21T05:48:06;21.33;;;9.63;;
22894;SDS011;11614;52.494;6.976;2024-02-21T05:50:32;17.17;;;7.80;;
22894;SDS011;11614;52.494;6.976;2024-02-21T05:52:58;23.93;;;9.50;;
22894;SDS011;11614;52.494;6.976;2024-02-21T05:55:24;19.53;;;8.93;;
22894;SDS011;11614;52.494;6.976;2024-02-21T05:57:53;18.10;;;9.13;;
22894;SDS011;11614;52.494;6.976;2024-02-21T06:00:20;19.53;;;9.17;;
22894;SDS011;11614;52.494;6.976;2024-02-21T06:02:46;14.57;;;7.70;;
22894;SDS011;11614;52.494;6.976;2024-02-21T06:05:12;16.17;;;6.97;;
22894;SDS011;11614;52.494;6.976;2024-02-21T06:07:38;17.00;;;9.13;;
22894;SDS011;11614;52.494;6.976;2024-02-21T06:10:04;10.43;;;4.77;;
22894;SDS011;11614;52.494;6.976;2024-02-21T06:12:31;17.37;;;7.47;;
22894;SDS011;11614;52.494;6.976;2024-02-21T06:14:56;12.70;;;5.23;;
22894;SDS011;11614;52.494;6.976;2024-02-21T06:17:22;17.50;;;8.70;;
22894;SDS011;11614;52.494;6.976;2024-02-21T06:19:48;13.73;;;6.47;;
22894;SDS011;11614;52.494;6.976;2024-02-21T06:22:14;17.40;;;9.00;;
22894;SDS011;11614;52.494;6.976;2024-02-21T06:24:40;13.17;;;6.77;;
22894;SDS011;11614;52.494;6.976;2024-02-21T06:27:06;21.57;;;10.13;;
22894;SDS011;11614;52.494;6.976;2024-02-21T06:29:32;18.80;;;8.97;;
22894;SDS011;11614;52.494;6.976;2024-02-21T06:31:59;13.13;;;6.57;;
22894;SDS011;11614;52.494;6.976;2024-02-21T06:34:24;17.70;;;8.47;;
22894;SDS011;11614;52.494;6.976;2024-02-21T06:36:51;13.87;;;6.47;;
22894;SDS011;11614;52.494;6.976;2024-02-21T06:39:17;15.23;;;9.10;;
22894;SDS011;11614;52.494;6.976;2024-02-21T06:41:43;15.53;;;7.87;;
22894;SDS011;11614;52.494;6.976;2024-02-21T06:44:09;13.77;;;5.47;;
22894;SDS011;11614;52.494;6.976;2024-02-21T06:46:35;16.67;;;7.20;;
22894;SDS011;11614;52.494;6.976;2024-02-21T06:49:01;13.10;;;5.53;;
22894;SDS011;11614;52.494;6.976;2024-02-21T06:51:30;13.03;;;5.57;;
22894;SDS011;11614;52.494;6.976;2024-02-21T06:53:56;12.63;;;5.60;;
22894;SDS011;11614;52.494;6.976;2024-02-21T06:56:23;16.97;;;7.60;;
22894;SDS011;11614;52.494;6.976;2024-02-21T06:58:56;14.93;;;5.67;;
22894;SDS011;11614;52.494;6.976;2024-02-21T07:01:23;16.77;;;7.17;;
22894;SDS011;11614;52.494;6.976;2024-02-21T07:03:49;13.40;;;6.67;;
22894;SDS011;11614;52.494;6.976;2024-02-21T07:06:15;19.63;;;8.80;;
22894;SDS011;11614;52.494;6.976;2024-02-21T07:08:41;10.17;;;3.97;;
22894;SDS011;11614;52.494;6.976;2024-02-21T07:11:07;17.13;;;7.20;;
22894;SDS011;11614;52.494;6.976;2024-02-21T07:13:33;10.17;;;5.20;;
22894;SDS011;11614;52.494;6.976;2024-02-21T07:15:59;17.27;;;9.13;;
22894;SDS011;11614;52.494;6.976;2024-02-21T07:18:25;13.43;;;5.87;;
22894;SDS011;11614;52.494;6.976;2024-02-21T07:20:51;12.73;;;6.37;;
22894;SDS011;11614;52.494;6.976;2024-02-21T07:23:18;18.00;;;8.53;;
22894;SDS011;11614;52.494;6.976;2024-02-21T07:25:44;10.47;;;4.77;;
22894;SDS011;11614;52.494;6.976;2024-02-21T07:28:10;9.17;;;4.43;;
22894;SDS011;11614;52.494;6.976;2024-02-21T07:30:36;16.70;;;7.03;;
22894;SDS011;11614;52.494;6.976;2024-02-21T07:33:02;15.43;;;7.00;;
22894;SDS011;11614;52.494;6.976;2024-02-21T07:35:28;17.43;;;7.37;;
22894;SDS011;11614;52.494;6.976;2024-02-21T07:37:54;17.73;;;7.33;;
22894;SDS011;11614;52.494;6.976;2024-02-21T07:40:20;10.50;;;5.30;;
22894;SDS011;11614;52.494;6.976;2024-02-21T07:42:46;15.63;;;6.67;;
22894;SDS011;11614;52.494;6.976;2024-02-21T07:45:12;9.17;;;4.37;;
22894;SDS011;11614;52.494;6.976;2024-02-21T07:47:38;12.30;;;5.77;;
22894;SDS011;11614;52.494;6.976;2024-02-21T07:50:04;10.30;;;4.50;;
22894;SDS011;11614;52.494;6.976;2024-02-21T07:52:30;14.00;;;7.40;;
22894;SDS011;11614;52.494;6.976;2024-02-21T07:54:56;13.50;;;4.93;;
22894;SDS011;11614;52.494;6.976;2024-02-21T07:57:22;12.57;;;6.97;;
22894;SDS011;11614;52.494;6.976;2024-02-21T07:59:48;9.00;;;3.93;;
22894;SDS011;11614;52.494;6.976;2024-02-21T08:02:14;10.47;;;5.13;;
22894;SDS011;11614;52.494;6.976;2024-02-21T08:04:41;12.37;;;5.57;;
22894;SDS011;11614;52.494;6.976;2024-02-21T08:07:07;13.20;;;6.53;;
22894;SDS011;11614;52.494;6.976;2024-02-21T08:09:33;9.00;;;4.17;;
22894;SDS011;11614;52.494;6.976;2024-02-21T08:11:59;9.80;;;5.37;;
22894;SDS011;11614;52.494;6.976;2024-02-21T08:14:25;12.13;;;4.80;;
22894;SDS011;11614;52.494;6.976;2024-02-21T08:16:51;13.63;;;6.30;;
22894;SDS011;11614;52.494;6.976;2024-02-21T08:19:18;17.53;;;6.07;;
22894;SDS011;11614;52.494;6.976;2024-02-21T08:21:44;10.20;;;4.37;;
22894;SDS011;11614;52.494;6.976;2024-02-21T08:24:12;16.50;;;7.50;;
22894;SDS011;11614;52.494;6.976;2024-02-21T08:26:40;8.87;;;3.80;;
22894;SDS011;11614;52.494;6.976;2024-02-21T08:29:06;13.67;;;6.63;;
22894;SDS011;11614;52.494;6.976;2024-02-21T08:31:32;12.23;;;6.13;;
22894;SDS011;11614;52.494;6.976;2024-02-21T08:33:59;13.67;;;6.93;;
22894;SDS011;11614;52.494;6.976;2024-02-21T08:36:28;13.47;;;5.10;;
22894;SDS011;11614;52.494;6.976;2024-02-21T08:38:55;12.80;;;4.87;;
22894;SDS011;11614;52.494;6.976;2024-02-21T08:41:21;14.63;;;6.40;;
22894;SDS011;11614;52.494;6.976;2024-02-21T08:43:49;15.07;;;7.90;;
22894;SDS011;11614;52.494;6.976;2024-02-21T08:46:15;16.23;;;7.87;;
22894;SDS011;11614;52.494;6.976;2024-02-21T08:48:41;12.90;;;7.27;;
22894;SDS011;11614;52.494;6.976;2024-02-21T08:51:07;12.23;;;6.17;;
22894;SDS011;11614;52.494;6.976;2024-02-21T08:53:33;9.83;;;4.40;;
22894;SDS011;11614;52.494;6.976;2024-02-21T08:55:59;9.57;;;3.70;;
22894;SDS011;11614;52.494;6.976;2024-02-21T08:58:24;13.43;;;6.23;;
22894;SDS011;11614;52.494;6.976;2024-02-21T09:00:51;13.33;;;6.30;;
22894;SDS011;11614;52.494;6.976;2024-02-21T09:03:17;13.90;;;5.70;;
22894;SDS011;11614;52.494;6.976;2024-02-21T09:05:45;19.23;;;9.70;;
22894;SDS011;11614;52.494;6.976;2024-02-21T09:08:11;14.47;;;6.87;;
22894;SDS011;11614;52.494;6.976;2024-02-21T09:10:39;9.90;;;5.27;;
22894;SDS011;11614;52.494;6.976;2024-02-21T09:13:05;13.97;;;6.77;;
22894;SDS011;11614;52.494;6.976;2024-02-21T09:15:32;12.03;;;6.00;;
22894;SDS011;11614;52.494;6.976;2024-02-21T09:17:58;9.20;;;4.03;;
22894;SDS011;11614;52.494;6.976;2024-02-21T09:20:25;11.47;;;6.33;;
22894;SDS011;11614;52.494;6.976;2024-02-21T09:22:51;14.03;;;7.07;;
22894;SDS011;11614;52.494;6.976;2024-02-21T09:25:18;15.70;;;7.37;;
22894;SDS011;11614;52.494;6.976;2024-02-21T09:27:44;12.97;;;6.70;;
22894;SDS011;11614;52.494;6.976;2024-02-21T09:30:10;7.20;;;3.17;;
22894;SDS011;11614;52.494;6.976;2024-02-21T09:32:37;11.57;;;6.00;;
22894;SDS011;11614;52.494;6.976;2024-02-21T09:35:04;10.00;;;4.57;;
22894;SDS011;11614;52.494;6.976;2024-02-21T09:37:32;12.23;;;6.17;;
22894;SDS011;11614;52.494;6.976;2024-02-21T09:39:59;11.00;;;4.83;;
22894;SDS011;11614;52.494;6.976;2024-02-21T09:42:27;12.93;;;6.17;;
22894;SDS011;11614;52.494;6.976;2024-02-21T09:44:57;15.47;;;5.87;;
22894;SDS011;11614;52.494;6.976;2024-02-21T09:47:24;11.57;;;6.13;;
22894;SDS011;11614;52.494;6.976;2024-02-21T09:49:56;9.33;;;4.27;;
22894;SDS011;11614;52.494;6.976;2024-02-21T09:52:22;11.80;;;5.73;;
22894;SDS011;11614;52.494;6.976;2024-02-21T09:54:50;10.33;;;4.70;;
22894;SDS011;11614;52.494;6.976;2024-02-21T09:57:17;8.07;;;5.07;;
22894;SDS011;11614;52.494;6.976;2024-02-21T09:59:44;13.37;;;6.53;;
22894;SDS011;11614;52.494;6.976;2024-02-21T10:02:11;10.63;;;5.67;;
22894;SDS011;11614;52.494;6.976;2024-02-21T10:04:37;7.60;;;3.60;;
22894;SDS011;11614;52.494;6.976;2024-02-21T10:07:05;7.77;;;3.10;;
22894;SDS011;11614;52.494;6.976;2024-02-21T10:09:31;11.30;;;4.60;;
22894;SDS011;11614;52.494;6.976;2024-02-21T10:12:08;9.70;;;3.40;;
22894;SDS011;11614;52.494;6.976;2024-02-21T10:14:36;10.57;;;3.90;;
22894;SDS011;11614;52.494;6.976;2024-02-21T10:17:03;11.17;;;4.80;;
22894;SDS011;11614;52.494;6.976;2024-02-21T10:19:34;9.10;;;4.07;;
22894;SDS011;11614;52.494;6.976;2024-02-21T10:22:01;10.53;;;4.93;;
22894;SDS011;11614;52.494;6.976;2024-02-21T10:24:28;9.73;;;3.60;;
22894;SDS011;11614;52.494;6.976;2024-02-21T10:27:04;11.77;;;4.63;;
22894;SDS011;11614;52.494;6.976;2024-02-21T10:29:33;8.47;;;4.53;;
22894;SDS011;11614;52.494;6.976;2024-02-21T10:32:12;11.67;;;4.90;;
22894;SDS011;11614;52.494;6.976;2024-02-21T10:34:39;9.93;;;4.57;;
22894;SDS011;11614;52.494;6.976;2024-02-21T10:37:05;9.03;;;3.53;;
22894;SDS011;11614;52.494;6.976;2024-02-21T10:39:32;8.07;;;3.80;;
22894;SDS011;11614;52.494;6.976;2024-02-21T10:42:02;10.33;;;5.67;;
22894;SDS011;11614;52.494;6.976;2024-02-21T10:44:29;10.00;;;4.83;;
22894;SDS011;11614;52.494;6.976;2024-02-21T10:46:56;8.47;;;4.43;;
22894;SDS011;11614;52.494;6.976;2024-02-21T10:49:23;8.00;;;4.13;;
22894;SDS011;11614;52.494;6.976;2024-02-21T10:52:02;9.53;;;4.90;;
22894;SDS011;11614;52.494;6.976;2024-02-21T10:54:32;13.40;;;6.37;;
22894;SDS011;11614;52.494;6.976;2024-02-21T10:57:00;13.63;;;5.10;;
22894;SDS011;11614;52.494;6.976;2024-02-21T10:59:26;8.57;;;3.17;;
22894;SDS011;11614;52.494;6.976;2024-02-21T11:01:56;9.33;;;4.73;;
22894;SDS011;11614;52.494;6.976;2024-02-21T11:04:22;6.63;;;3.40;;
22894;SDS011;11614;52.494;6.976;2024-02-21T11:06:49;8.83;;;4.23;;
22894;SDS011;11614;52.494;6.976;2024-02-21T11:09:15;9.27;;;3.67;;
22894;SDS011;11614;52.494;6.976;2024-02-21T11:11:43;6.67;;;3.50;;
22894;SDS011;11614;52.494;6.976;2024-02-21T11:14:19;11.37;;;3.77;;
22894;SDS011;11614;52.494;6.976;2024-02-21T11:16:45;9.90;;;5.20;;
22894;SDS011;11614;52.494;6.976;2024-02-21T11:19:21;5.53;;;2.40;;
22894;SDS011;11614;52.494;6.976;2024-02-21T11:21:47;9.57;;;4.17;;
22894;SDS011;11614;52.494;6.976;2024-02-21T11:24:14;6.87;;;3.63;;
22894;SDS011;11614;52.494;6.976;2024-02-21T11:26:40;5.87;;;2.80;;
22894;SDS011;11614;52.494;6.976;2024-02-21T11:29:09;6.90;;;2.90;;
22894;SDS011;11614;52.494;6.976;2024-02-21T11:31:39;6.40;;;2.70;;
22894;SDS011;11614;52.494;6.976;2024-02-21T11:34:09;5.27;;;2.77;;
22894;SDS011;11614;52.494;6.976;2024-02-21T11:36:35;8.93;;;4.17;;
22894;SDS011;11614;52.494;6.976;2024-02-21T11:39:05;6.30;;;4.17;;
22894;SDS011;11614;52.494;6.976;2024-02-21T11:41:31;6.80;;;2.90;;
22894;SDS011;11614;52.494;6.976;2024-02-21T11:43:57;6.87;;;2.80;;
22894;SDS011;11614;52.494;6.976;2024-02-21T11:46:23;6.03;;;3.60;;
22894;SDS011;11614;52.494;6.976;2024-02-21T11:48:49;5.93;;;3.57;;
22894;SDS011;11614;52.494;6.976;2024-02-21T11:51:24;8.43;;;4.60;;
22894;SDS011;11614;52.494;6.976;2024-02-21T11:53:52;7.10;;;3.60;;
22894;SDS011;11614;52.494;6.976;2024-02-21T11:56:18;6.33;;;2.93;;
22894;SDS011;11614;52.494;6.976;2024-02-21T11:58:48;5.87;;;3.43;;
22894;SDS011;11614;52.494;6.976;2024-02-21T12:01:14;4.43;;;2.23;;
22894;SDS011;11614;52.494;6.976;2024-02-21T12:03:40;4.20;;;1.60;;
22894;SDS011;11614;52.494;6.976;2024-02-21T12:06:07;4.57;;;2.37;;
22894;SDS011;11614;52.494;6.976;2024-02-21T12:08:42;6.30;;;2.00;;
22894;SDS011;11614;52.494;6.976;2024-02-21T12:11:16;3.67;;;2.03;;
22894;SDS011;11614;52.494;6.976;2024-02-21T12:13:42;5.73;;;1.87;;
22894;SDS011;11614;52.494;6.976;2024-02-21T12:16:08;3.90;;;2.20;;
22894;SDS011;11614;52.494;6.976;2024-02-21T12:18:33;3.80;;;1.97;;
22894;SDS011;11614;52.494;6.976;2024-02-21T12:20:59;7.80;;;2.47;;
22894;SDS011;11614;52.494;6.976;2024-02-21T12:23:38;3.37;;;1.73;;
22894;SDS011;11614;52.494;6.976;2024-02-21T12:26:04;2.83;;;1.60;;
22894;SDS011;11614;52.494;6.976;2024-02-21T12:28:30;4.60;;;1.83;;
22894;SDS011;11614;52.494;6.976;2024-02-21T12:30:57;3.37;;;1.53;;
22894;SDS011;11614;52.494;6.976;2024-02-21T12:33:23;3.27;;;1.83;;
22894;SDS011;11614;52.494;6.976;2024-02-21T12:35:49;3.00;;;2.30;;
22894;SDS011;11614;52.494;6.976;2024-02-21T12:38:15;4.07;;;2.63;;
22894;SDS011;11614;52.494;6.976;2024-02-21T12:40:43;6.00;;;3.30;;
22894;SDS011;11614;52.494;6.976;2024-02-21T12:43:08;2.87;;;1.40;;
22894;SDS011;11614;52.494;6.976;2024-02-21T12:45:35;7.20;;;1.90;;
22894;SDS011;11614;52.494;6.976;2024-02-21T12:48:01;5.67;;;2.47;;
22894;SDS011;11614;52.494;6.976;2024-02-21T12:50:26;9.87;;;3.53;;
22894;SDS011;11614;52.494;6.976;2024-02-21T12:52:52;6.40;;;3.20;;
22894;SDS011;11614;52.494;6.976;2024-02-21T12:55:18;6.93;;;2.80;;
22894;SDS011;11614;52.494;6.976;2024-02-21T12:57:44;5.53;;;3.30;;
22894;SDS011;11614;52.494;6.976;2024-02-21T13:00:10;5.60;;;3.50;;
22894;SDS011;11614;52.494;6.976;2024-02-21T13:02:36;6.23;;;3.07;;
22894;SDS011;11614;52.494;6.976;2024-02-21T13:05:03;5.70;;;2.87;;
22894;SDS011;11614;52.494;6.976;2024-02-21T13:07:30;7.73;;;2.80;;
22894;SDS011;11614;52.494;6.976;2024-02-21T13:09:57;7.03;;;2.97;;
22894;SDS011;11614;52.494;6.976;2024-02-21T13:12:23;5.00;;;2.97;;
22894;SDS011;11614;52.494;6.976;2024-02-21T13:14:51;7.30;;;2.40;;
22894;SDS011;11614;52.494;6.976;2024-02-21T13:17:17;8.23;;;4.00;;
22894;SDS011;11614;52.494;6.976;2024-02-21T13:19:43;5.63;;;3.13;;
22894;SDS011;11614;52.494;6.976;2024-02-21T13:22:09;9.90;;;3.40;;
22894;SDS011;11614;52.494;6.976;2024-02-21T13:24:35;4.70;;;2.77;;
22894;SDS011;11614;52.494;6.976;2024-02-21T13:27:01;5.10;;;3.47;;
22894;SDS011;11614;52.494;6.976;2024-02-21T13:29:28;6.57;;;2.30;;
22894;SDS011;11614;52.494;6.976;2024-02-21T13:31:54;6.27;;;2.90;;
22894;SDS011;11614;52.494;6.976;2024-02-21T13:34:20;10.03;;;2.87;;
22894;SDS011;11614;52.494;6.976;2024-02-21T13:36:46;6.67;;;2.97;;
22894;SDS011;11614;52.494;6.976;2024-02-21T13:39:12;5.60;;;3.27;;
22894;SDS011;11614;52.494;6.976;2024-02-21T13:41:40;7.77;;;3.57;;
22894;SDS011;11614;52.494;6.976;2024-02-21T13:44:07;10.90;;;4.27;;
22894;SDS011;11614;52.494;6.976;2024-02-21T13:46:34;7.03;;;3.27;;
22894;SDS011;11614;52.494;6.976;2024-02-21T13:49:03;5.83;;;2.53;;
22894;SDS011;11614;52.494;6.976;2024-02-21T13:51:30;6.63;;;2.87;;
22894;SDS011;11614;52.494;6.976;2024-02-21T13:53:56;8.60;;;2.03;;
22894;SDS011;11614;52.494;6.976;2024-02-21T13:56:22;8.13;;;3.93;;
22894;SDS011;11614;52.494;6.976;2024-02-21T13:58:48;5.83;;;3.17;;
22894;SDS011;11614;52.494;6.976;2024-02-21T14:01:14;6.30;;;2.43;;
22894;SDS011;11614;52.494;6.976;2024-02-21T14:03:40;9.23;;;3.33;;
22894;SDS011;11614;52.494;6.976;2024-02-21T14:06:06;6.60;;;2.87;;
22894;SDS011;11614;52.494;6.976;2024-02-21T14:08:32;6.03;;;2.67;;
22894;SDS011;11614;52.494;6.976;2024-02-21T14:10:59;6.07;;;3.17;;
22894;SDS011;11614;52.494;6.976;2024-02-21T14:13:25;10.37;;;3.70;;
22894;SDS011;11614;52.494;6.976;2024-02-21T14:15:51;6.47;;;3.30;;
22894;SDS011;11614;52.494;6.976;2024-02-21T14:18:17;4.17;;;1.70;;
22894;SDS011;11614;52.494;6.976;2024-02-21T14:20:43;5.90;;;2.40;;
22894;SDS011;11614;52.494;6.976;2024-02-21T14:23:09;5.17;;;2.97;;
22894;SDS011;11614;52.494;6.976;2024-02-21T14:25:35;5.73;;;2.80;;
22894;SDS011;11614;52.494;6.976;2024-02-21T14:28:01;6.63;;;2.40;;
22894;SDS011;11614;52.494;6.976;2024-02-21T14:30:27;7.87;;;2.43;;
22894;SDS011;11614;52.494;6.976;2024-02-21T14:32:53;7.00;;;2.87;;
22894;SDS011;11614;52.494;6.976;2024-02-21T14:35:20;8.07;;;3.00;;
22894;SDS011;11614;52.494;6.976;2024-02-21T14:37:46;5.70;;;2.40;;